Time;durP1;ratioP1;P1;durP2;ratioP2;P2;SDS_P1;SDS_P2;PMS_P1;PMS_P2;Temp;Humidity;BMP_temperature;BMP_pressure;BME280_temperature;BME280_humidity;BME280_pressure;Samples;Min_cycle;Max_cycle;Signal;HPM_P1;HPM_P2
2022/09/15 00:01:56;;;;;;;6.03;3.00;;;;;;;14.05;67.75;96231.41;5093377;28;20043;-60
2022/09/15 00:04:23;;;;;;;4.57;2.70;;;;;;;13.99;68.24;96230.00;5093345;28;20127;-60
2022/09/15 00:06:50;;;;;;;7.35;2.72;;;;;;;13.99;68.41;96221.25;5093326;28;20456;-60
2022/09/15 00:09:18;;;;;;;3.30;2.30;;;;;;;13.96;68.63;96216.16;5093288;28;20087;-60
2022/09/15 00:11:45;;;;;;;5.43;2.28;;;;;;;13.95;68.56;96219.72;5093359;28;20043;-60
2022/09/15 00:14:13;;;;;;;9.57;2.67;;;;;;;13.90;69.13;96238.41;5093090;28;20052;-60
2022/09/15 00:16:40;;;;;;;3.35;2.78;;;;;;;13.87;69.37;96234.16;5093400;28;20135;-60
2022/09/15 00:19:08;;;;;;;3.28;2.63;;;;;;;13.85;69.32;96230.75;5093132;28;20477;-60
2022/09/15 00:21:37;;;;;;;3.67;2.20;;;;;;;13.81;69.41;96218.72;5093298;28;20051;-60
2022/09/15 00:24:05;;;;;;;5.25;2.60;;;;;;;13.72;69.22;96216.59;5093170;28;20083;-59
2022/09/15 00:26:32;;;;;;;2.88;2.65;;;;;;;13.75;69.90;96211.19;5097450;28;20052;-60
2022/09/15 00:29:00;;;;;;;4.07;2.80;;;;;;;13.76;69.69;96205.00;5097490;28;20487;-60
2022/09/15 00:31:30;;;;;;;3.67;2.70;;;;;;;13.78;70.32;96208.38;5097272;28;20048;-59
2022/09/15 00:34:01;;;;;;;3.03;2.70;;;;;;;13.76;70.29;96197.13;5097158;28;20055;-60
2022/09/15 00:36:28;;;;;;;;;;;;;;;13.71;70.46;96196.53;5097521;28;20052;-60
2022/09/15 00:38:55;;;;;;;3.63;2.80;;;;;;;13.55;71.03;96189.53;5097299;28;20262;-59
2022/09/15 00:41:24;;;;;;;6.22;2.95;;;;;;;13.62;71.48;96190.00;5097058;28;20501;-60
2022/09/15 00:43:53;;;;;;;9.02;2.90;;;;;;;13.64;71.58;96191.59;5096993;28;20076;-59
2022/09/15 00:46:22;;;;;;;4.53;2.72;;;;;;;13.66;71.65;96182.81;5096983;28;20048;-60
2022/09/15 00:48:59;;;;;;;3.10;2.80;;;;;;;13.61;71.48;96180.44;5097131;28;20056;-60
2022/09/15 00:51:34;;;;;;;4.80;2.63;;;;;;;13.55;71.88;96186.03;5096861;28;20055;-60
2022/09/15 00:54:04;;;;;;;3.40;3.10;;;;;;;13.52;72.00;96177.38;5096793;28;20497;-60
2022/09/15 00:56:34;;;;;;;4.00;3.10;;;;;;;13.47;71.82;96181.16;5097076;28;20090;-59
2022/09/15 00:59:05;;;;;;;3.20;2.90;;;;;;;13.45;72.16;96183.03;5096723;28;20127;-59
2022/09/15 01:01:33;;;;;;;3.88;2.90;;;;;;;13.47;72.01;96175.91;5096850;28;20130;-59
2022/09/15 01:04:02;;;;;;;10.25;4.10;;;;;;;13.43;71.86;96179.66;5096611;28;20481;-59
2022/09/15 01:06:34;;;;;;;3.85;2.72;;;;;;;13.49;72.58;96185.44;5096809;28;20048;-59
2022/09/15 01:09:06;;;;;;;7.10;2.95;;;;;;;13.53;72.92;96188.75;5096812;28;20386;-59
2022/09/15 01:11:34;;;;;;;6.80;3.22;;;;;;;13.53;73.12;96186.13;5096497;28;20080;-59
2022/09/15 01:14:01;;;;;;;7.22;3.28;;;;;;;13.49;73.81;96185.44;5096358;28;20052;-59
2022/09/15 01:16:41;;;;;;;5.55;2.88;;;;;;;13.52;73.74;96185.25;5096385;28;20135;-59
2022/09/15 01:19:33;;;;;;;3.75;3.42;;;;;;;13.49;73.95;96184.56;5096376;28;20043;-60
2022/09/15 01:22:17;;;;;;;5.78;3.20;;;;;;;13.49;74.18;96185.44;5096344;28;20048;-59
2022/09/15 01:24:56;;;;;;;3.30;3.00;;;;;;;13.48;74.17;96183.72;5096149;28;20097;-59
2022/09/15 01:27:51;;;;;;;5.13;3.17;;;;;;;13.49;74.63;96184.56;5096278;28;20105;-60
2022/09/15 01:30:22;;;;;;;3.35;3.05;;;;;;;13.39;74.09;96181.59;5096345;28;20055;-59
2022/09/15 01:33:14;;;;;;;3.55;3.25;;;;;;;13.50;74.70;96181.88;5096164;28;20139;-59
2022/09/15 01:35:52;;;;;;;5.15;3.20;;;;;;;13.57;74.61;96179.75;5093809;28;20044;-59
2022/09/15 01:38:29;;;;;;;5.93;3.70;;;;;;;13.52;74.52;96179.19;5095890;28;20058;-60
2022/09/15 01:41:02;;;;;;;3.50;2.80;;;;;;;13.52;74.72;96187.88;5095935;28;20044;-59
2022/09/15 01:43:33;;;;;;;4.55;3.25;;;;;;;13.48;74.21;96182.84;5095829;28;20075;-59
2022/09/15 01:46:03;;;;;;;3.00;2.80;;;;;;;13.47;74.86;96189.91;5095873;28;20073;-59
2022/09/15 01:48:34;;;;;;;6.22;3.28;;;;;;;13.37;75.02;96176.41;5095936;28;20474;-59
2022/09/15 01:51:03;;;;;;;4.85;3.40;;;;;;;13.33;74.99;96177.53;5095717;28;20109;-59
2022/09/15 01:53:30;;;;;;;6.07;3.53;;;;;;;13.32;75.05;96180.22;5095741;28;20131;-59
2022/09/15 01:56:03;;;;;;;7.85;3.47;;;;;;;13.36;75.26;96182.59;5095680;28;20048;-60
2022/09/15 01:58:31;;;;;;;3.40;3.05;;;;;;;13.35;75.07;96185.31;5095448;28;20048;-59
2022/09/15 02:01:05;;;;;;;5.80;3.20;;;;;;;13.39;75.19;96190.31;5095564;28;20052;-59
2022/09/15 02:03:36;;;;;;;5.05;3.03;;;;;;;13.41;75.40;96187.63;5095603;28;20561;-59
2022/09/15 02:06:12;;;;;;;5.68;3.10;;;;;;;13.38;74.81;96186.00;5095459;28;20075;-60
2022/09/15 02:08:45;;;;;;;5.18;3.53;;;;;;;13.30;75.18;96182.94;5095437;28;20417;-59
2022/09/15 02:11:17;;;;;;;6.63;3.22;;;;;;;13.36;75.20;96181.75;5095713;28;20131;-59
2022/09/15 02:13:58;;;;;;;12.35;3.85;;;;;;;13.36;74.91;96179.97;5095076;28;20117;-59
2022/09/15 02:16:32;;;;;;;4.20;3.30;;;;;;;13.38;75.16;96180.75;5095433;28;20375;-59
2022/09/15 02:19:10;;;;;;;4.20;3.20;;;;;;;13.37;74.87;96175.59;5095179;28;20128;-59
2022/09/15 02:21:56;;;;;;;3.88;3.35;;;;;;;13.36;74.84;96179.13;5095137;28;20048;-60
2022/09/15 02:24:29;;;;;;;3.63;3.25;;;;;;;13.31;74.53;96183.78;5095044;28;20059;-59
2022/09/15 02:26:57;;;;;;;4.78;3.30;;;;;;;13.36;74.54;96189.63;5095136;28;20048;-59
2022/09/15 02:29:27;;;;;;;3.72;2.88;;;;;;;13.38;74.83;96196.53;5095116;28;20055;-59
2022/09/15 02:31:58;;;;;;;3.42;3.08;;;;;;;13.40;74.77;96197.25;5095169;28;20048;-59
2022/09/15 02:34:30;;;;;;;6.32;3.55;;;;;;;13.40;74.68;96197.25;5094803;28;20054;-59
2022/09/15 02:36:58;;;;;;;3.70;2.97;;;;;;;13.41;74.31;96190.25;5095016;28;20055;-59
2022/09/15 02:39:29;;;;;;;3.72;3.28;;;;;;;13.35;74.30;96195.81;5094966;28;20444;-59
2022/09/15 02:41:58;;;;;;;3.97;3.00;;;;;;;13.34;74.48;96194.97;5094897;28;20458;-59
2022/09/15 02:44:26;;;;;;;6.10;3.42;;;;;;;13.41;74.69;96203.38;5094708;28;20050;-59
2022/09/15 02:46:53;;;;;;;4.20;3.30;;;;;;;13.41;74.52;96200.75;5094638;28;20131;-59
2022/09/15 02:49:21;;;;;;;5.25;3.20;;;;;;;13.39;74.77;96199.97;5094557;28;20566;-59
2022/09/15 02:51:48;;;;;;;2.97;2.72;;;;;;;13.40;74.67;96205.13;5094691;28;20048;-59
2022/09/15 02:54:16;;;;;;;3.08;2.80;;;;;;;13.38;74.78;96198.28;5094524;28;20067;-59
2022/09/15 02:56:43;;;;;;;5.28;3.20;;;;;;;13.37;74.84;96196.59;5094539;28;20051;-59
2022/09/15 02:59:10;;;;;;;5.10;3.22;;;;;;;13.37;74.65;96199.22;5094370;28;20044;-60
2022/09/15 03:01:37;;;;;;;3.30;2.83;;;;;;;13.36;74.31;96197.50;5094467;28;20101;-60
2022/09/15 03:04:05;;;;;;;3.35;3.05;;;;;;;13.37;74.20;96188.72;5094310;28;20123;-60
2022/09/15 03:06:34;;;;;;;4.07;3.30;;;;;;;13.39;74.40;96186.84;5094274;28;20052;-60
2022/09/15 03:09:04;;;;;;;6.10;3.30;;;;;;;13.39;74.43;96187.69;5094484;28;20075;-60
2022/09/15 03:11:32;;;;;;;3.95;3.40;;;;;;;13.38;74.48;96187.78;5094208;28;20048;-60
2022/09/15 03:14:00;;;;;;;4.70;3.08;;;;;;;13.36;74.55;96185.22;5093845;28;20101;-60
2022/09/15 03:16:29;;;;;;;4.20;3.10;;;;;;;13.33;74.27;96189.81;5094231;28;20048;-60
2022/09/15 03:18:58;;;;;;;7.30;3.42;;;;;;;13.32;74.41;96188.09;5094078;28;20128;-60
2022/09/15 03:21:28;;;;;;;3.42;2.97;;;;;;;13.31;74.58;96197.78;5094002;28;20051;-60
2022/09/15 03:23:58;;;;;;;4.95;3.33;;;;;;;13.33;74.29;96195.91;5093822;28;20047;-60
2022/09/15 03:26:26;;;;;;;4.55;3.25;;;;;;;13.34;74.21;96197.59;5094010;28;20083;-60
2022/09/15 03:28:53;;;;;;;4.60;3.67;;;;;;;13.37;74.15;96204.47;5093812;28;20044;-60
2022/09/15 03:31:20;;;;;;;3.33;3.03;;;;;;;13.36;74.29;96202.75;5094157;28;20044;-59
2022/09/15 03:33:48;;;;;;;5.03;3.10;;;;;;;13.21;74.58;96201.81;5093758;28;20094;-60
2022/09/15 03:36:17;;;;;;;5.82;3.65;;;;;;;13.19;75.01;96195.81;5094100;28;20082;-59
2022/09/15 03:38:44;;;;;;;3.83;3.20;;;;;;;13.21;74.97;96196.56;5093726;28;20048;-60
2022/09/15 03:41:13;;;;;;;7.20;3.70;;;;;;;13.24;74.91;96201.66;5093769;28;20075;-60
2022/09/15 03:43:40;;;;;;;3.47;3.17;;;;;;;13.25;75.09;96191.06;5093747;28;20043;-60
2022/09/15 03:46:10;;;;;;;5.32;3.17;;;;;;;13.30;74.94;96187.38;5093604;28;20047;-60
2022/09/15 03:48:39;;;;;;;4.28;3.28;;;;;;;13.29;74.72;96178.63;5093605;28;20052;-60
2022/09/15 03:51:07;;;;;;;3.95;3.15;;;;;;;13.27;74.71;96178.72;5093603;28;20051;-60
2022/09/15 03:53:36;;;;;;;5.07;2.95;;;;;;;13.27;74.74;96178.72;5093448;28;20055;-60
2022/09/15 03:56:12;;;;;;;8.10;3.17;;;;;;;13.32;74.47;96185.47;5093810;28;20150;-60
2022/09/15 03:58:41;;;;;;;3.78;3.15;;;;;;;13.34;74.42;96186.25;5093402;28;20508;-60
2022/09/15 04:01:09;;;;;;;4.30;3.50;;;;;;;13.37;74.42;96191.34;5093201;28;20143;-59
2022/09/15 04:03:36;;;;;;;6.72;3.15;;;;;;;13.40;74.58;96196.44;5093612;28;20083;-60
2022/09/15 04:06:04;;;;;;;7.47;3.50;;;;;;;13.39;74.26;96186.84;5093457;28;20066;-60
2022/09/15 04:08:31;;;;;;;4.47;3.53;;;;;;;13.35;74.46;96187.94;5093180;28;20097;-60
2022/09/15 04:10:59;;;;;;;5.18;3.40;;;;;;;13.35;74.97;96186.19;5093305;28;20052;-60
2022/09/15 04:13:26;;;;;;;5.53;3.35;;;;;;;13.37;74.85;96186.91;5093013;28;20044;-60
2022/09/15 04:16:01;;;;;;;7.55;3.60;;;;;;;13.44;75.03;96187.44;5093365;28;20101;-60
2022/09/15 04:18:29;;;;;;;3.63;3.25;;;;;;;13.49;74.79;96184.56;5093230;28;20070;-60
2022/09/15 04:20:59;;;;;;;3.60;3.00;;;;;;;13.54;74.81;96185.16;5093234;28;20467;-60
2022/09/15 04:23:27;;;;;;;7.87;3.37;;;;;;;13.64;74.57;96180.28;5093157;28;20052;-60
2022/09/15 04:25:57;;;;;;;6.55;3.20;;;;;;;13.77;74.37;96173.38;5093275;28;20284;-60
2022/09/15 04:28:24;;;;;;;9.40;3.10;;;;;;;13.92;74.42;96177.84;5093315;28;20375;-60
2022/09/15 04:30:52;;;;;;;3.22;2.72;;;;;;;14.02;74.16;96179.84;5093161;28;20044;-60
2022/09/15 04:33:21;;;;;;;3.30;3.00;;;;;;;14.12;74.19;96184.59;5093135;28;20520;-60
2022/09/15 04:35:49;;;;;;;4.28;3.35;;;;;;;14.26;73.99;96179.38;5092942;28;20051;-60
2022/09/15 04:38:16;;;;;;;4.47;2.85;;;;;;;14.43;72.83;96182.78;5093053;28;20547;-60
2022/09/15 04:40:43;;;;;;;4.50;3.45;;;;;;;14.65;72.01;96189.38;5093093;28;20451;-60
2022/09/15 04:43:10;;;;;;;4.03;2.85;;;;;;;14.99;71.41;96183.91;5093055;28;20462;-60
2022/09/15 04:45:38;;;;;;;2.92;2.40;;;;;;;15.41;71.08;96187.41;5093082;28;20056;-60
2022/09/15 04:48:05;;;;;;;7.30;2.80;;;;;;;15.82;69.35;96184.88;5092625;28;20054;-60
2022/09/15 04:50:33;;;;;;;3.72;2.35;;;;;;;16.17;68.36;96189.63;5092960;28;20131;-60
2022/09/15 04:53:01;;;;;;;4.82;2.72;;;;;;;16.49;67.16;96193.72;5092924;28;20044;-60
2022/09/15 04:55:28;;;;;;;2.50;2.20;;;;;;;16.87;66.56;96199.97;5092733;28;20055;-60
2022/09/15 04:57:56;;;;;;;5.85;2.15;;;;;;;17.29;65.54;96201.56;5092854;28;20047;-60
2022/09/15 05:00:23;;;;;;;5.85;2.45;;;;;;;17.74;63.88;96211.59;5092777;28;20071;-60
2022/09/15 05:02:51;;;;;;;3.53;2.20;;;;;;;18.14;62.03;96204.34;5092701;28;20044;-60
2022/09/15 05:05:18;;;;;;;2.83;2.25;;;;;;;18.33;61.53;96206.47;5092737;28;20543;-60
2022/09/15 05:07:47;;;;;;;2.10;2.00;;;;;;;18.37;61.27;96204.44;5092760;28;20040;-60
2022/09/15 05:10:14;;;;;;;8.15;2.30;;;;;;;18.47;61.17;96209.88;5092690;28;20052;-61
2022/09/15 05:12:42;;;;;;;4.93;1.98;;;;;;;18.70;60.24;96210.78;5095610;28;20124;-60
2022/09/15 05:15:10;;;;;;;5.28;2.08;;;;;;;19.10;59.62;96208.69;5096418;28;20097;-60
2022/09/15 05:17:37;;;;;;;4.80;2.33;;;;;;;19.75;58.79;96208.06;5096467;28;20044;-60
2022/09/15 05:20:06;;;;;;;2.40;2.00;;;;;;;20.44;57.29;96200.72;5096496;28;20044;-60
2022/09/15 05:22:33;;;;;;;4.03;1.95;;;;;;;21.15;54.99;96203.66;5096515;28;20046;-60
2022/09/15 05:25:02;;;;;;;11.75;2.30;;;;;;;21.87;54.40;96201.00;5096662;28;20091;-60
2022/09/15 05:27:31;;;;;;;2.08;1.70;;;;;;;22.66;51.66;96201.03;5096278;28;20087;-60
2022/09/15 05:29:59;;;;;;;4.47;1.67;;;;;;;23.36;48.84;96196.34;5096302;28;20409;-61
2022/09/15 05:32:26;;;;;;;3.58;1.83;;;;;;;23.97;48.78;96199.41;5096221;28;20040;-61
2022/09/15 05:34:53;;;;;;;3.53;2.00;;;;;;;24.54;47.67;96193.91;5096056;28;20109;-60
2022/09/15 05:37:20;;;;;;;1.88;1.67;;;;;;;25.02;46.08;96193.59;5096140;28;20079;-61
2022/09/15 05:39:48;;;;;;;2.88;1.88;;;;;;;25.49;45.66;96197.69;5096064;28;20097;-61
2022/09/15 05:42:17;;;;;;;4.70;1.77;;;;;;;25.76;45.21;96200.34;5095990;28;20048;-60
2022/09/15 05:44:45;;;;;;;3.92;1.75;;;;;;;25.86;44.70;96201.84;5095927;28;20043;-60
2022/09/15 05:47:12;;;;;;;4.55;1.73;;;;;;;26.10;44.11;96204.78;5095966;28;20465;-60
2022/09/15 05:49:39;;;;;;;5.13;1.52;;;;;;;26.45;43.74;96205.50;5095947;28;20047;-59
2022/09/15 05:52:06;;;;;;;1.85;1.50;;;;;;;26.93;42.54;96199.44;5095752;28;20075;-60
2022/09/15 05:54:34;;;;;;;2.95;1.70;;;;;;;27.30;41.63;96197.19;5095735;28;20052;-60
2022/09/15 05:57:01;;;;;;;2.97;1.73;;;;;;;27.73;39.91;96191.53;5095730;28;20077;-60
2022/09/15 05:59:29;;;;;;;2.58;1.42;;;;;;;28.12;40.45;96180.91;5095819;28;20127;-60
2022/09/15 06:01:56;;;;;;;3.58;1.77;;;;;;;28.18;38.10;96190.94;5095613;28;20044;-60
2022/09/15 06:04:24;;;;;;;2.92;1.40;;;;;;;28.29;37.69;96194.22;5096133;28;20052;-60
2022/09/15 06:06:51;;;;;;;3.90;1.63;;;;;;;28.60;40.33;96198.72;5095505;28;20079;-60
2022/09/15 06:09:18;;;;;;;1.50;1.40;;;;;;;28.87;40.12;96204.53;5095888;28;20055;-60
2022/09/15 06:11:45;;;;;;;2.38;1.55;;;;;;;29.03;39.24;96208.09;5095508;28;20057;-60
2022/09/15 06:14:13;;;;;;;1.95;1.30;;;;;;;29.19;38.93;96199.03;5094998;28;20052;-60
2022/09/15 06:16:42;;;;;;;4.75;1.60;;;;;;;29.26;37.25;96199.97;5095289;28;20048;-60
2022/09/15 06:19:09;;;;;;;1.67;1.50;;;;;;;29.43;38.29;96202.47;5095303;28;20135;-60
2022/09/15 06:21:36;;;;;;;1.70;1.50;;;;;;;29.66;36.80;96201.53;5095228;28;20054;-60
2022/09/15 06:24:05;;;;;;;2.50;1.70;;;;;;;29.72;36.69;96200.78;5094730;28;20048;-60
2022/09/15 06:26:33;;;;;;;3.03;1.60;;;;;;;29.77;36.99;96204.59;5095063;28;20054;-60
2022/09/15 06:29:03;;;;;;;4.80;1.55;;;;;;;29.92;37.37;96194.81;5095078;28;20048;-60
2022/09/15 06:31:32;;;;;;;3.45;1.42;;;;;;;30.16;37.29;96188.28;5095017;28;20047;-60
2022/09/15 06:34:02;;;;;;;1.75;1.30;;;;;;;30.24;35.45;96192.69;5094937;28;20040;-61
2022/09/15 06:36:30;;;;;;;2.05;1.60;;;;;;;30.38;36.05;96188.28;5095003;28;20055;-60
2022/09/15 06:38:59;;;;;;;1.98;1.42;;;;;;;30.54;34.91;96184.47;5095195;28;20172;-60
2022/09/15 06:41:27;;;;;;;4.05;1.73;;;;;;;30.61;30.54;96179.13;5094720;28;20087;-60
2022/09/15 06:43:55;;;;;;;6.20;1.63;;;;;;;30.72;31.09;96178.59;5094661;28;20500;-60
2022/09/15 06:46:25;;;;;;;5.07;1.45;;;;;;;31.00;33.94;96179.69;5095028;28;20097;-60
2022/09/15 06:48:52;;;;;;;2.28;1.40;;;;;;;31.18;34.23;96178.31;5094958;28;20101;-60
2022/09/15 06:51:22;;;;;;;2.42;1.88;;;;;;;31.30;32.45;96186.72;5094755;28;20044;-60
2022/09/15 06:53:50;;;;;;;3.20;1.70;;;;;;;31.43;29.97;96189.50;5094624;28;20079;-60
2022/09/15 06:56:19;;;;;;;2.90;1.20;;;;;;;31.66;30.95;96191.06;5094364;28;20055;-60
2022/09/15 06:58:48;;;;;;;3.33;1.40;;;;;;;31.74;31.13;96193.59;5094565;28;20044;-61
2022/09/15 07:01:21;;;;;;;2.20;1.52;;;;;;;31.85;30.26;96192.19;5094471;28;20044;-60
2022/09/15 07:03:48;;;;;;;2.85;1.50;;;;;;;31.92;32.77;96184.13;5094399;28;20087;-60
2022/09/15 07:06:16;;;;;;;3.03;1.70;;;;;;;31.97;33.09;96168.13;5094275;28;20127;-60
2022/09/15 07:08:45;;;;;;;2.38;1.42;;;;;;;32.03;30.04;96175.41;5094365;28;20052;-61
2022/09/15 07:11:13;;;;;;;3.03;1.40;;;;;;;32.07;28.78;96173.16;5094115;28;20052;-60
2022/09/15 07:13:41;;;;;;;3.60;1.40;;;;;;;31.76;30.18;96175.28;5094005;28;20090;-60
2022/09/15 07:16:11;;;;;;;6.75;1.63;;;;;;;31.89;29.60;96173.69;5094172;28;20048;-60
2022/09/15 07:18:38;;;;;;;3.45;1.73;;;;;;;31.98;28.98;96185.16;5094158;28;20048;-60
2022/09/15 07:21:08;;;;;;;6.32;1.48;;;;;;;31.60;28.71;96183.78;5093990;28;20117;-60
2022/09/15 07:23:35;;;;;;;3.35;1.67;;;;;;;31.60;28.63;96181.88;5093931;28;20577;-61
2022/09/15 07:26:09;;;;;;;1.60;1.48;;;;;;;31.87;29.93;96186.56;5094127;28;20082;-60
2022/09/15 07:28:36;;;;;;;1.92;1.30;;;;;;;32.08;30.03;96171.28;5093871;28;20048;-60
2022/09/15 07:31:05;;;;;;;4.03;1.50;;;;;;;32.11;28.68;96173.59;5093869;28;20071;-60
2022/09/15 07:33:33;;;;;;;3.40;1.65;;;;;;;32.25;28.31;96172.56;5093773;28;20063;-60
2022/09/15 07:36:00;;;;;;;1.83;1.42;;;;;;;32.49;27.60;96166.78;5093437;28;20052;-60
2022/09/15 07:38:28;;;;;;;2.25;1.70;;;;;;;32.51;27.31;96167.41;5093730;28;20555;-60
2022/09/15 07:40:55;;;;;;;2.10;1.38;;;;;;;32.67;27.17;96155.34;5093726;28;20044;-60
2022/09/15 07:43:24;;;;;;;5.57;1.70;;;;;;;32.77;27.41;96163.88;5093655;28;20044;-61
2022/09/15 07:45:51;;;;;;;2.15;1.33;;;;;;;32.79;26.98;96171.78;5093651;28;20058;-60
2022/09/15 07:48:18;;;;;;;2.60;1.50;;;;;;;32.90;28.17;96173.84;5093649;28;20052;-60
2022/09/15 07:50:47;;;;;;;6.28;1.60;;;;;;;32.98;27.13;96178.22;5093594;28;20071;-61
2022/09/15 07:53:14;;;;;;;5.15;1.48;;;;;;;32.97;27.45;96179.25;5093507;28;20048;-60
2022/09/15 07:55:41;;;;;;;7.10;1.58;;;;;;;32.87;29.50;96182.38;5093449;28;20499;-60
2022/09/15 07:58:08;;;;;;;1.80;1.38;;;;;;;32.94;27.74;96185.09;5093429;28;20489;-60
2022/09/15 08:00:38;;;;;;;3.38;1.40;;;;;;;33.04;28.37;96187.41;5093379;28;20044;-60
2022/09/15 08:03:05;;;;;;;4.13;1.50;;;;;;;33.14;28.42;96195.09;5093361;28;20044;-60
2022/09/15 08:05:32;;;;;;;4.45;1.48;;;;;;;33.33;28.33;96196.09;5093386;28;20052;-60
2022/09/15 08:07:59;;;;;;;2.53;1.48;;;;;;;33.18;28.41;96182.81;5093549;28;20481;-60
2022/09/15 08:10:26;;;;;;;3.75;1.88;;;;;;;33.20;27.89;96183.41;5093434;28;20055;-60
2022/09/15 08:12:53;;;;;;;3.33;1.77;;;;;;;33.30;28.19;96187.56;5093234;28;20044;-60
2022/09/15 08:15:21;;;;;;;2.60;1.42;;;;;;;33.44;28.18;96194.63;5093246;28;20048;-60
2022/09/15 08:17:49;;;;;;;3.40;1.60;;;;;;;33.49;27.90;96186.66;5093236;28;20130;-59
2022/09/15 08:20:17;;;;;;;7.68;1.75;;;;;;;33.53;27.72;96190.63;5093292;28;20079;-59
2022/09/15 08:22:45;;;;;;;2.70;1.42;;;;;;;33.41;26.38;96185.03;5093235;28;20052;-60
2022/09/15 08:25:12;;;;;;;2.78;1.70;;;;;;;33.30;27.61;96191.09;5093317;28;20048;-59
2022/09/15 08:27:39;;;;;;;3.17;1.70;;;;;;;33.39;28.59;96187.13;5093396;28;20048;-60
2022/09/15 08:30:08;;;;;;;8.00;1.90;;;;;;;33.23;25.68;96184.88;5093151;28;20048;-60
2022/09/15 08:32:35;;;;;;;10.10;1.50;;;;;;;33.18;27.18;96182.81;5093169;28;20090;-60
2022/09/15 08:35:03;;;;;;;4.70;2.15;;;;;;;33.13;29.23;96188.00;5093039;28;20048;-60
2022/09/15 08:37:31;;;;;;;2.75;1.35;;;;;;;32.87;28.67;96181.56;5093234;28;20051;-59
2022/09/15 08:39:58;;;;;;;5.55;1.58;;;;;;;33.03;27.10;96183.84;5093237;28;20129;-60
2022/09/15 08:42:27;;;;;;;2.85;1.40;;;;;;;33.03;26.37;96186.56;5093174;28;20048;-60
2022/09/15 08:45:00;;;;;;;4.35;1.73;;;;;;;32.87;26.68;96181.56;5093133;28;20048;-60
2022/09/15 08:47:31;;;;;;;5.95;1.60;;;;;;;32.67;27.50;96177.00;5097289;28;20048;-60
2022/09/15 08:50:06;;;;;;;5.82;1.55;;;;;;;32.60;29.46;96174.25;5097221;28;20083;-60
2022/09/15 08:52:40;;;;;;;6.18;1.50;;;;;;;32.62;29.31;96163.22;5097040;28;20126;-60
2022/09/15 08:55:15;;;;;;;5.50;1.90;;;;;;;32.23;29.12;96163.81;5096867;28;20044;-60
2022/09/15 08:57:43;;;;;;;4.30;1.40;;;;;;;32.42;30.60;96176.72;5096767;28;20055;-60
2022/09/15 09:00:14;;;;;;;3.22;1.52;;;;;;;32.29;30.26;96170.25;5096750;28;20052;-60
2022/09/15 09:03:12;;;;;;;7.93;1.73;;;;;;;32.45;29.50;96170.91;5096773;28;20044;-60
2022/09/15 09:05:50;;;;;;;5.13;1.58;;;;;;;32.66;29.51;96172.63;5096693;28;20131;-60
2022/09/15 09:09:12;;;;;;;4.18;1.75;;;;;;;32.68;28.23;96164.31;5096746;28;20048;-61
2022/09/15 09:12:06;;;;;;;5.35;1.65;;;;;;;32.80;28.90;96159.09;5054436;28;20080;-60
2022/09/15 09:14:45;;;;;;;5.63;1.70;;;;;;;32.64;28.57;96158.47;5053970;28;20063;-60
2022/09/15 09:17:31;;;;;;;1.90;1.48;;;;;;;32.75;29.36;96151.59;5090218;28;20048;-60
2022/09/15 09:20:21;;;;;;;4.07;1.95;;;;;;;32.76;28.38;96150.53;5096428;28;20109;-60
2022/09/15 09:22:52;;;;;;;6.25;1.30;;;;;;;32.82;29.35;96146.16;5096628;28;20512;-60
2022/09/15 09:25:21;;;;;;;2.90;1.50;;;;;;;33.00;29.88;96146.34;5096261;28;20485;-60
2022/09/15 09:27:50;;;;;;;5.68;1.77;;;;;;;32.95;29.45;96146.13;5096227;28;20093;-60
2022/09/15 09:30:19;;;;;;;2.92;1.70;;;;;;;33.02;29.56;96146.16;5096237;28;20054;-60
2022/09/15 09:32:51;;;;;;;3.08;1.70;;;;;;;33.01;28.05;96148.00;5096256;28;20044;-60
2022/09/15 09:35:28;;;;;;;3.45;1.55;;;;;;;32.98;29.47;96153.84;5095898;28;20478;-60
2022/09/15 09:37:58;;;;;;;6.15;1.55;;;;;;;32.87;30.92;96144.47;5096322;28;20040;-60
2022/09/15 09:40:27;;;;;;;8.93;1.52;;;;;;;32.89;28.81;96146.97;5096085;28;20079;-60
2022/09/15 09:42:54;;;;;;;3.78;1.45;;;;;;;32.85;30.28;96143.03;5095969;28;20123;-60
2022/09/15 09:45:22;;;;;;;6.78;1.80;;;;;;;32.88;29.75;96139.91;5096026;28;20105;-60
2022/09/15 09:47:49;;;;;;;7.20;1.52;;;;;;;32.85;28.77;96129.50;5095815;28;20044;-60
2022/09/15 09:50:34;;;;;;;7.28;1.65;;;;;;;32.80;28.79;96129.31;5095731;28;20044;-60
2022/09/15 09:53:19;;;;;;;2.88;1.30;;;;;;;32.77;28.57;96120.56;5095779;28;20044;-60
2022/09/15 09:55:46;;;;;;;3.60;1.42;;;;;;;32.74;28.44;96117.44;5095644;28;20134;-60
2022/09/15 09:58:18;;;;;;;5.60;1.23;;;;;;;32.71;26.75;96115.16;5094865;28;20051;-60
2022/09/15 10:00:45;;;;;;;5.55;1.55;;;;;;;32.55;26.45;96117.25;5095648;28;20097;-60
2022/09/15 10:03:16;;;;;;;5.70;1.90;;;;;;;32.59;28.44;96115.78;5095703;28;20516;-60
2022/09/15 10:05:45;;;;;;;3.50;2.17;;;;;;;32.64;28.59;96116.00;5095574;28;20138;-59
2022/09/15 10:08:20;;;;;;;11.80;1.80;;;;;;;32.75;28.09;96119.91;5095521;28;20067;-59
2022/09/15 10:10:52;;;;;;;6.13;1.50;;;;;;;32.86;27.86;96115.75;5095425;28;20509;-60
2022/09/15 10:13:20;;;;;;;8.30;1.90;;;;;;;33.00;28.33;96121.13;5095421;28;20131;-60
2022/09/15 10:15:54;;;;;;;4.93;1.60;;;;;;;32.99;27.95;96122.19;5095323;28;20044;-60
2022/09/15 10:18:28;;;;;;;5.45;1.75;;;;;;;32.97;28.53;96122.41;5095385;28;20417;-60
2022/09/15 10:20:57;;;;;;;6.38;1.30;;;;;;;33.03;27.48;96118.84;5095230;28;20040;-60
2022/09/15 10:23:28;;;;;;;6.75;1.50;;;;;;;32.93;26.49;96110.34;5095196;28;20112;-60
2022/09/15 10:25:57;;;;;;;5.75;1.77;;;;;;;32.90;27.92;96113.47;5095181;28;20055;-60
2022/09/15 10:28:27;;;;;;;4.05;1.50;;;;;;;32.88;28.28;96104.72;5095139;28;20121;-59
2022/09/15 10:31:02;;;;;;;7.50;1.88;;;;;;;32.88;27.37;96105.56;5095034;28;20498;-60
2022/09/15 10:33:31;;;;;;;4.53;1.23;;;;;;;33.04;26.87;96106.16;5094911;28;20486;-60
2022/09/15 10:36:03;;;;;;;6.82;2.28;;;;;;;33.08;27.11;96103.88;5094821;28;20044;-60
2022/09/15 10:38:39;;;;;;;5.47;1.60;;;;;;;33.16;25.35;96106.34;5094940;28;20044;-60
2022/09/15 10:41:17;;;;;;;4.68;1.77;;;;;;;33.12;28.24;96100.53;5094861;28;20481;-59
2022/09/15 10:44:02;;;;;;;4.88;1.83;;;;;;;33.13;28.04;96094.06;5094813;28;20044;-60
2022/09/15 10:46:38;;;;;;;4.43;1.50;;;;;;;33.25;26.87;96093.38;5094839;28;20123;-60
2022/09/15 10:49:23;;;;;;;10.90;1.40;;;;;;;33.32;26.68;96090.66;5094786;28;20121;-60
2022/09/15 10:52:05;;;;;;;8.05;1.35;;;;;;;33.33;26.94;96086.91;5094856;28;20052;-60
2022/09/15 10:54:57;;;;;;;7.85;1.83;;;;;;;33.44;26.04;96077.28;5094672;28;20132;-60
2022/09/15 10:57:39;;;;;;;5.90;1.60;;;;;;;33.53;27.70;96074.09;5094508;28;20543;-60
2022/09/15 11:00:11;;;;;;;7.75;1.40;;;;;;;33.59;26.20;96075.13;5094511;28;20130;-60
2022/09/15 11:02:58;;;;;;;3.70;1.45;;;;;;;33.62;26.42;96069.28;5094497;28;20051;-60
2022/09/15 11:05:34;;;;;;;5.13;1.65;;;;;;;33.48;26.19;96065.78;5094388;28;20086;-60
2022/09/15 11:08:16;;;;;;;5.88;1.63;;;;;;;33.45;26.41;96068.94;5094677;28;20090;-59
2022/09/15 11:10:52;;;;;;;7.15;1.73;;;;;;;33.35;26.52;96065.84;5094701;28;20101;-60
2022/09/15 11:13:27;;;;;;;7.35;1.50;;;;;;;33.37;27.21;96071.88;5093957;28;20052;-60
2022/09/15 11:16:03;;;;;;;9.80;2.08;;;;;;;33.48;26.12;96059.53;5094034;28;20043;-60
2022/09/15 11:18:55;;;;;;;8.98;1.63;;;;;;;33.61;25.94;96053.22;5094120;28;20501;-60
2022/09/15 11:21:27;;;;;;;6.40;1.80;;;;;;;33.70;26.40;96051.94;5094060;28;20044;-60
2022/09/15 11:24:11;;;;;;;6.45;1.77;;;;;;;33.85;25.24;96046.19;5094144;28;20044;-60
2022/09/15 11:26:44;;;;;;;3.80;1.52;;;;;;;33.80;25.93;96039.78;5093936;28;20054;-60
2022/09/15 11:29:18;;;;;;;7.85;1.98;;;;;;;33.85;25.40;96038.06;5094207;28;20044;-60
2022/09/15 11:31:50;;;;;;;16.05;2.20;;;;;;;33.81;26.31;96031.44;5093979;28;20044;-60
2022/09/15 11:34:23;;;;;;;8.18;1.65;;;;;;;33.68;25.85;96037.78;5093992;28;20139;-60
2022/09/15 11:36:55;;;;;;;6.30;1.65;;;;;;;33.54;24.79;96031.56;5093890;28;20135;-60
2022/09/15 11:39:24;;;;;;;5.85;1.67;;;;;;;33.54;26.25;96037.00;5093911;28;20101;-60
2022/09/15 11:41:59;;;;;;;6.32;1.70;;;;;;;33.52;25.59;96025.53;5093692;28;20553;-60
2022/09/15 11:44:31;;;;;;;3.75;1.70;;;;;;;33.64;25.72;96031.13;5093628;28;20047;-60
2022/09/15 11:47:10;;;;;;;6.95;1.95;;;;;;;33.65;25.61;96035.50;5093504;28;20048;-60
2022/09/15 11:49:42;;;;;;;13.77;1.98;;;;;;;33.52;24.72;96025.53;5093644;28;20079;-60
2022/09/15 11:52:22;;;;;;;3.58;1.45;;;;;;;33.47;25.15;96023.47;5093808;28;20083;-60